Terminal Aerodrome Forecast
Issued by NWS

Current Version | Previous Version | Graphics & Text | Print | Product List | Glossary On
Versions: 1 2 3 4 5 6 7 8 9 10 11 12 13 14 15 16 17 18 19 20 21 22 23 24 25 26 27 28 29 30
000
FTUS41 KILN 212336
TAFLUK
TAF
KLUK 212336Z 2200/2224 24005KT P6SM VCSH SCT060 BKN250
     FM220300 VRB03KT P6SM BKN250
     FM221400 20008KT P6SM BKN045
     FM222000 20009KT P6SM VCSH BKN040=

USA.gov is the U.S. government's official web portal to all federal, state and local government web resources and services.